createdAt,value
2019-01-12T00:00:33.715Z,88.12
2019-01-12T00:03:02.820Z,88.59
2019-01-12T00:05:31.971Z,88.83
2019-01-12T00:08:01.046Z,89.34
2019-01-12T00:10:30.255Z,89.30
2019-01-12T00:12:59.453Z,90.07
2019-01-12T00:15:28.626Z,89.66
2019-01-12T00:17:57.784Z,89.55
2019-01-12T00:20:26.918Z,89.55
2019-01-12T00:22:55.993Z,89.32
2019-01-12T00:25:25.254Z,89.69
2019-01-12T00:27:54.385Z,89.66
2019-01-12T00:30:23.528Z,89.53
2019-01-12T00:32:52.754Z,89.90
2019-01-12T00:35:21.919Z,89.23
2019-01-12T00:37:51.092Z,89.17
2019-01-12T00:40:20.238Z,89.15
2019-01-12T00:42:49.327Z,88.76
2019-01-12T00:45:18.475Z,89.03
2019-01-12T00:47:47.612Z,88.97
2019-01-12T00:50:18.681Z,88.84
2019-01-12T00:52:47.809Z,88.63
2019-01-12T00:55:16.945Z,88.99
2019-01-12T00:57:46.040Z,88.92
2019-01-12T01:00:18.119Z,89.23
2019-01-12T01:02:47.267Z,88.67
2019-01-12T01:05:16.509Z,89.16
2019-01-12T01:07:45.668Z,89.25
2019-01-12T01:10:17.908Z,89.35
2019-01-12T01:12:47.044Z,89.45
2019-01-12T01:15:16.240Z,89.18
2019-01-12T01:17:45.448Z,88.97
2019-01-12T01:20:15.235Z,88.33
2019-01-12T01:22:44.408Z,89.10
2019-01-12T01:25:13.491Z,89.20
2019-01-12T01:27:42.623Z,89.52
2019-01-12T01:30:17.095Z,88.77
2019-01-12T01:32:46.271Z,88.31
2019-01-12T01:35:15.389Z,88.60
2019-01-12T01:37:44.575Z,88.99
2019-01-12T01:40:15.723Z,89.41
2019-01-12T01:42:44.852Z,88.54
2019-01-12T01:45:14.743Z,88.66
2019-01-12T01:47:43.886Z,89.17
2019-01-12T01:50:14.348Z,88.50
2019-01-12T01:52:43.524Z,88.33
2019-01-12T01:55:12.647Z,88.56
2019-01-12T01:57:41.838Z,88.15
2019-01-12T02:00:16.204Z,88.22
2019-01-12T02:02:45.374Z,88.93
2019-01-12T02:05:14.501Z,89.32
2019-01-12T02:07:43.683Z,89.02
2019-01-12T02:10:18.964Z,89.17
2019-01-12T02:12:48.093Z,89.63
2019-01-12T02:15:17.392Z,89.34
2019-01-12T02:17:46.491Z,89.14
2019-01-12T02:20:15.639Z,88.96
2019-01-12T02:22:44.818Z,89.42
2019-01-12T02:25:14.212Z,89.15
2019-01-12T02:27:43.364Z,88.92
2019-01-12T02:30:16.063Z,88.82
2019-01-12T02:32:45.151Z,88.37
2019-01-12T02:35:14.285Z,88.40
2019-01-12T02:37:43.429Z,88.28
2019-01-12T02:40:12.595Z,88.34
2019-01-12T02:42:41.790Z,88.67
2019-01-12T02:45:11.082Z,88.73
2019-01-12T02:47:40.221Z,88.70
2019-01-12T02:50:09.443Z,88.68
2019-01-12T02:52:38.590Z,88.16
2019-01-12T02:55:08.936Z,88.56
2019-01-12T02:57:38.375Z,88.19
2019-01-12T03:00:10.204Z,88.33
2019-01-12T03:02:54.883Z,87.92
2019-01-12T03:05:15.142Z,88.25
2019-01-12T03:07:44.350Z,88.51
2019-01-12T03:10:15.024Z,88.49
2019-01-12T03:12:44.156Z,88.36
2019-01-12T03:15:15.211Z,88.54
2019-01-12T03:17:44.341Z,88.16
2019-01-12T03:20:15.143Z,87.93
2019-01-12T03:22:44.340Z,87.64
2019-01-12T03:25:18.694Z,87.64
2019-01-12T03:27:44.307Z,87.87
2019-01-12T03:30:18.408Z,87.43
2019-01-12T03:32:47.490Z,87.57
2019-01-12T03:35:16.611Z,88.00
2019-01-12T03:37:45.730Z,88.45
2019-01-12T03:40:17.892Z,89.00
2019-01-12T03:42:47.034Z,88.70
2019-01-12T03:45:16.883Z,88.81
2019-01-12T03:47:46.045Z,88.88
2019-01-12T03:50:15.167Z,88.96
2019-01-12T03:52:44.268Z,88.68
2019-01-12T03:55:13.447Z,88.80
2019-01-12T03:57:42.531Z,88.94
2019-01-12T04:00:23.624Z,88.55
2019-01-12T04:02:52.747Z,88.37
2019-01-12T04:05:21.859Z,88.09
2019-01-12T04:07:51.001Z,87.93
2019-01-12T04:10:20.097Z,88.42
2019-01-12T04:12:49.184Z,88.45
2019-01-12T04:15:18.391Z,87.75
2019-01-12T04:17:47.516Z,87.76
2019-01-12T04:20:17.749Z,88.33
2019-01-12T04:22:46.836Z,88.01
2019-01-12T04:25:15.980Z,87.81
2019-01-12T04:27:45.153Z,87.51
2019-01-12T04:30:16.529Z,87.36
2019-01-12T04:32:45.636Z,87.68
2019-01-12T04:35:14.754Z,88.31
2019-01-12T04:37:43.851Z,86.83
2019-01-12T04:40:18.246Z,86.58
2019-01-12T04:42:47.397Z,87.23
2019-01-12T04:45:16.474Z,87.01
2019-01-12T04:47:45.642Z,87.22
2019-01-12T04:50:16.855Z,87.69
2019-01-12T04:52:46.053Z,87.56
2019-01-12T04:55:15.300Z,87.46
2019-01-12T04:57:44.346Z,87.36
2019-01-12T05:00:17.982Z,87.71
2019-01-12T05:02:47.178Z,87.73
2019-01-12T05:05:16.444Z,87.69
2019-01-12T05:07:45.514Z,87.21
2019-01-12T05:10:14.810Z,87.55
2019-01-12T05:12:43.994Z,87.99
2019-01-12T05:15:13.711Z,87.40
2019-01-12T05:17:42.848Z,86.63
2019-01-12T05:20:18.445Z,87.58
2019-01-12T05:22:47.725Z,87.30
2019-01-12T05:25:17.037Z,87.06
2019-01-12T05:27:46.226Z,87.49
2019-01-12T05:30:20.305Z,86.85
2019-01-12T05:32:49.457Z,86.80
2019-01-12T05:35:18.617Z,86.92
2019-01-12T05:37:47.787Z,86.62
2019-01-12T05:40:16.888Z,86.47
2019-01-12T05:42:46.126Z,86.87
2019-01-12T05:45:15.226Z,86.84
2019-01-12T05:47:44.403Z,87.05
2019-01-12T05:50:13.960Z,86.54
2019-01-12T05:52:43.103Z,85.97
2019-01-12T05:55:12.202Z,86.75
2019-01-12T05:57:41.370Z,86.24
2019-01-12T06:00:14.745Z,85.84
2019-01-12T06:02:43.855Z,85.52
2019-01-12T06:05:12.972Z,86.11
2019-01-12T06:07:42.002Z,86.43
2019-01-12T06:10:11.124Z,86.27
2019-01-12T06:12:40.208Z,86.02
2019-01-12T06:15:09.499Z,86.45
2019-01-12T06:17:39.697Z,85.74
2019-01-12T06:20:09.795Z,85.69
2019-01-12T06:22:39.126Z,86.03
2019-01-12T06:25:08.357Z,86.50
2019-01-12T06:27:38.446Z,85.65
2019-01-12T06:30:10.588Z,85.18
2019-01-12T06:32:39.835Z,85.22
2019-01-12T06:35:09.028Z,84.49
2019-01-12T06:37:38.260Z,83.59
2019-01-12T06:40:10.138Z,83.71
2019-01-12T06:42:39.281Z,83.72
2019-01-12T06:45:09.919Z,83.90
2019-01-12T06:47:39.031Z,84.00
2019-01-12T06:50:09.403Z,84.11
2019-01-12T06:52:38.665Z,84.51
2019-01-12T06:55:08.937Z,84.50
2019-01-12T06:57:38.095Z,84.87
2019-01-12T07:00:10.561Z,84.86
2019-01-12T07:02:39.645Z,85.01
2019-01-12T07:05:08.791Z,85.00
2019-01-12T07:07:37.897Z,85.36
2019-01-12T07:10:07.882Z,85.55
2019-01-12T07:12:37.298Z,85.47
2019-01-12T07:15:07.455Z,85.73
2019-01-12T07:17:36.624Z,85.49
2019-01-12T07:20:08.202Z,85.65
2019-01-12T07:22:37.351Z,85.66
2019-01-12T07:25:06.448Z,85.43
2019-01-12T07:27:35.552Z,85.79
2019-01-12T07:30:06.301Z,85.15
2019-01-12T07:32:35.443Z,85.53
2019-01-12T07:35:04.507Z,85.04
2019-01-12T07:37:34.013Z,85.32
2019-01-12T07:40:03.234Z,85.38
2019-01-12T07:42:32.376Z,85.55
2019-01-12T07:45:01.399Z,85.36
2019-01-12T07:47:30.599Z,84.35
2019-01-12T07:49:59.637Z,84.78
2019-01-12T07:52:28.726Z,84.78
2019-01-12T07:54:57.798Z,84.05
2019-01-12T07:57:26.923Z,83.71
2019-01-12T07:59:56.044Z,83.80
2019-01-12T08:02:25.138Z,84.15
2019-01-12T08:04:54.189Z,83.96
2019-01-12T08:07:23.320Z,83.63
2019-01-12T08:09:52.436Z,83.68
2019-01-12T08:12:21.488Z,84.22
2019-01-12T08:14:50.569Z,83.87
2019-01-12T08:17:19.716Z,84.03
2019-01-12T08:19:48.787Z,83.25
2019-01-12T08:22:17.839Z,83.61
2019-01-12T08:24:46.911Z,83.27
2019-01-12T08:27:15.953Z,83.59
2019-01-12T08:29:45.006Z,83.69
2019-01-12T08:32:16.419Z,82.91
2019-01-12T08:34:45.513Z,82.21
2019-01-12T08:37:14.654Z,82.83
2019-01-12T08:39:43.759Z,81.97
2019-01-12T08:42:16.763Z,81.67
2019-01-12T08:44:45.944Z,81.83
2019-01-12T08:47:15.067Z,82.50
2019-01-12T08:49:45.627Z,82.72
2019-01-12T08:52:14.738Z,82.22
2019-01-12T08:54:43.799Z,81.85
2019-01-12T08:57:12.945Z,81.72
2019-01-12T08:59:42.042Z,81.66
2019-01-12T09:02:11.089Z,81.75
2019-01-12T09:04:43.492Z,81.65
2019-01-12T09:07:11.198Z,81.50
2019-01-12T09:09:40.389Z,80.76
2019-01-12T09:12:09.460Z,80.89
2019-01-12T09:14:38.752Z,80.67
2019-01-12T09:17:07.970Z,81.10
2019-01-12T09:19:37.072Z,80.92
2019-01-12T09:22:07.936Z,79.98
2019-01-12T09:24:37.140Z,80.93
2019-01-12T09:27:06.292Z,80.48
2019-01-12T09:29:35.426Z,80.19
2019-01-12T09:32:04.559Z,79.99
2019-01-12T09:35:30.699Z,80.97
2019-01-12T09:38:00.601Z,80.08
2019-01-12T09:40:33.014Z,81.28
2019-01-12T09:43:02.227Z,80.35
2019-01-12T09:45:34.615Z,80.10
2019-01-12T09:48:03.978Z,80.56
2019-01-12T09:50:34.742Z,80.97
2019-01-12T09:53:12.027Z,80.19
2019-01-12T09:55:40.884Z,80.48
2019-01-12T09:58:10.186Z,80.18
2019-01-12T10:00:39.284Z,80.48
2019-01-12T10:03:08.526Z,80.19
2019-01-12T10:05:37.599Z,80.37
2019-01-12T10:08:06.689Z,79.40
2019-01-12T10:10:35.852Z,79.40
2019-01-12T10:13:04.945Z,80.64
2019-01-12T10:15:37.331Z,80.08
2019-01-12T10:18:08.443Z,80.05
2019-01-12T10:20:37.285Z,80.05
2019-01-12T10:23:06.388Z,80.48
2019-01-12T10:25:35.473Z,79.63
2019-01-12T10:28:04.579Z,79.29
2019-01-12T10:30:33.690Z,80.31
2019-01-12T10:33:02.769Z,79.80
2019-01-12T10:35:31.934Z,79.79
2019-01-12T10:38:01.059Z,79.52
2019-01-12T10:40:30.210Z,79.69
2019-01-12T10:42:59.299Z,80.26
2019-01-12T10:45:28.470Z,80.45
2019-01-12T10:47:57.554Z,81.30
2019-01-12T10:50:31.959Z,82.38
2019-01-12T10:53:01.140Z,82.36
2019-01-12T10:55:30.218Z,83.15
2019-01-12T10:57:59.857Z,83.34
2019-01-12T11:00:32.331Z,84.65
2019-01-12T11:03:01.548Z,86.12
2019-01-12T11:05:30.782Z,85.95
2019-01-12T11:16:31.199Z,86.32
2019-01-12T11:19:33.735Z,86.47
2019-01-12T11:22:32.969Z,86.50
2019-01-12T11:25:32.418Z,86.31
2019-01-12T11:28:31.766Z,86.72
2019-01-12T11:31:34.491Z,87.05
2019-01-12T11:57:53.416Z,87.55
2019-01-12T12:00:27.575Z,87.54
2019-01-12T12:02:56.763Z,87.87
2019-01-12T12:05:25.886Z,89.24
2019-01-12T12:07:55.015Z,88.67
2019-01-12T12:10:24.102Z,88.66
2019-01-12T12:12:53.242Z,88.50
2019-01-12T12:15:23.187Z,88.44
2019-01-12T12:17:52.324Z,88.89
2019-01-12T12:20:23.732Z,88.71
2019-01-12T12:22:52.884Z,88.28
2019-01-12T12:25:22.024Z,87.26
2019-01-12T12:27:51.124Z,88.05
2019-01-12T12:30:22.585Z,88.10
2019-01-12T12:32:58.542Z,88.16
2019-01-12T12:35:27.759Z,87.48
2019-01-12T12:37:56.913Z,87.55
2019-01-12T12:40:26.250Z,87.48
2019-01-12T12:43:03.818Z,87.83
2019-01-12T12:46:07.599Z,88.54
2019-01-12T12:49:17.243Z,87.80
2019-01-12T12:52:13.162Z,88.67
2019-01-12T12:54:42.396Z,88.14
2019-01-12T12:57:11.607Z,88.29
2019-01-12T12:59:40.871Z,88.50
2019-01-12T13:02:10.030Z,88.60
2019-01-12T13:04:40.894Z,88.82
2019-01-12T13:07:10.162Z,88.79
2019-01-12T13:09:39.300Z,89.04
2019-01-12T13:12:08.715Z,89.34
2019-01-12T13:14:38.030Z,89.48
2019-01-12T13:17:07.223Z,89.38
2019-01-12T13:19:36.413Z,89.44
2019-01-12T13:22:05.715Z,89.82
2019-01-12T13:24:34.893Z,89.53
2019-01-12T13:27:42.163Z,89.91
2019-01-12T13:30:17.696Z,89.76
2019-01-12T13:32:49.327Z,90.02
2019-01-12T13:35:18.455Z,89.94
2019-01-12T13:37:47.624Z,90.06
2019-01-12T13:40:48.733Z,90.61
2019-01-12T13:44:06.665Z,89.96
2019-01-12T13:46:48.194Z,89.61
2019-01-12T13:49:17.364Z,90.20
2019-01-12T13:51:46.628Z,89.24
2019-01-12T13:54:15.839Z,88.86
2019-01-12T13:56:44.983Z,88.89
2019-01-12T13:59:15.314Z,88.81
2019-01-12T14:01:44.387Z,88.78
2019-01-12T14:04:13.551Z,88.77
2019-01-12T14:06:42.700Z,88.56
2019-01-12T14:09:11.806Z,88.65
2019-01-12T14:11:41.051Z,88.35
2019-01-12T14:14:10.179Z,88.53
2019-01-12T14:16:39.308Z,89.09
2019-01-12T14:19:08.395Z,88.96
2019-01-12T14:21:37.531Z,89.25
2019-01-12T14:24:06.627Z,89.38
2019-01-12T14:26:35.734Z,89.21
2019-01-12T14:29:04.851Z,88.93
2019-01-12T14:31:33.940Z,89.00
2019-01-12T14:34:03.061Z,88.86
2019-01-12T14:36:32.255Z,89.07
2019-01-12T14:39:01.347Z,89.10
2019-01-12T14:41:30.597Z,88.99
2019-01-12T14:43:59.738Z,88.54
2019-01-12T14:46:28.937Z,88.98
2019-01-12T14:48:58.079Z,88.85
2019-01-12T14:51:27.195Z,89.22
2019-01-12T14:53:56.294Z,89.16
2019-01-12T14:56:25.665Z,89.38
2019-01-12T14:58:54.860Z,89.20
2019-01-12T15:01:24.101Z,89.52
2019-01-12T15:03:53.197Z,89.83
2019-01-12T15:06:22.321Z,89.92
2019-01-12T15:08:51.410Z,89.72
2019-01-12T15:11:20.689Z,89.88
2019-01-12T15:13:49.875Z,89.61
2019-01-12T15:16:19.076Z,89.41
2019-01-12T15:18:48.216Z,89.67
2019-01-12T15:21:17.365Z,89.65
2019-01-12T15:23:46.479Z,89.92
2019-01-12T15:26:15.629Z,90.00
2019-01-12T15:28:44.701Z,89.86
2019-01-12T15:31:13.824Z,89.13
2019-01-12T15:33:42.973Z,89.45
2019-01-12T15:36:12.124Z,89.30
2019-01-12T15:38:41.249Z,89.83
2019-01-12T15:41:10.443Z,91.69
2019-01-12T15:43:39.605Z,90.90
2019-01-12T15:46:08.757Z,90.28
2019-01-12T15:48:37.837Z,90.68
2019-01-12T15:51:06.931Z,90.58
2019-01-12T15:53:36.092Z,90.05
2019-01-12T15:56:05.249Z,90.04
2019-01-12T15:58:34.397Z,89.98
2019-01-12T16:01:03.520Z,90.15
2019-01-12T16:03:32.607Z,90.43
2019-01-12T16:06:01.705Z,90.37
2019-01-12T16:08:30.845Z,90.42
2019-01-12T16:10:59.992Z,90.12
2019-01-12T16:13:29.123Z,90.29
2019-01-12T16:15:58.267Z,89.97
2019-01-12T16:18:27.415Z,89.54
2019-01-12T16:20:56.514Z,89.81
2019-01-12T16:23:25.695Z,89.45
2019-01-12T16:25:54.815Z,89.42
2019-01-12T16:28:23.941Z,89.76
2019-01-12T16:30:53.154Z,89.61
2019-01-12T16:33:22.382Z,89.48
2019-01-12T16:35:51.714Z,89.45
2019-01-12T16:38:20.897Z,89.14
2019-01-12T16:40:50.048Z,89.38
2019-01-12T16:43:19.174Z,88.97
2019-01-12T16:45:48.277Z,88.63
2019-01-12T16:48:17.376Z,88.52
2019-01-12T16:50:46.503Z,88.53
2019-01-12T16:53:15.587Z,88.46
2019-01-12T16:55:44.752Z,88.66
2019-01-12T16:58:13.954Z,88.83
2019-01-12T17:00:43.168Z,88.83
2019-01-12T17:03:12.329Z,88.42
2019-01-12T17:05:41.574Z,89.12
2019-01-12T17:08:10.724Z,88.82
2019-01-12T17:10:39.892Z,88.36
2019-01-12T17:13:08.971Z,88.26
2019-01-12T17:15:38.129Z,89.00
2019-01-12T17:18:07.218Z,88.63
2019-01-12T17:20:45.632Z,89.75
2019-01-12T17:23:14.800Z,89.62
2019-01-12T17:25:43.979Z,88.38
2019-01-12T17:28:23.029Z,87.96
2019-01-12T17:35:30.708Z,88.66
2019-01-12T17:38:27.279Z,88.85
2019-01-12T17:40:56.406Z,87.39
2019-01-12T17:43:25.554Z,86.90
2019-01-12T17:46:50.221Z,85.97
2019-01-12T17:49:19.399Z,86.54
2019-01-12T17:51:48.547Z,86.50
2019-01-12T17:54:18.960Z,86.20
2019-01-12T17:56:48.164Z,86.04
2019-01-12T17:59:17.444Z,86.42
2019-01-12T18:01:46.918Z,86.51
2019-01-12T18:04:16.095Z,86.89
2019-01-12T18:06:45.332Z,87.17
2019-01-12T18:09:14.598Z,86.88
2019-01-12T18:11:43.840Z,87.75
2019-01-12T18:14:12.979Z,86.85
2019-01-12T18:16:43.402Z,86.99
2019-01-12T18:19:13.054Z,87.33
2019-01-12T18:21:42.238Z,87.52
2019-01-12T18:24:11.432Z,87.50
2019-01-12T18:26:40.520Z,87.57
2019-01-12T18:29:09.683Z,87.18
2019-01-12T18:31:38.771Z,86.81
2019-01-12T18:34:07.907Z,87.08
2019-01-12T18:36:36.947Z,87.03
2019-01-12T18:39:08.180Z,86.69
2019-01-12T18:41:37.285Z,87.25
2019-01-12T18:44:06.528Z,87.18
2019-01-12T18:46:35.607Z,87.78
2019-01-12T18:49:05.009Z,88.06
2019-01-12T18:51:34.089Z,87.89
2019-01-12T18:54:03.306Z,87.87
2019-01-12T18:56:32.430Z,87.73
2019-01-12T18:59:01.604Z,87.75
2019-01-12T19:01:30.748Z,87.53
2019-01-12T19:03:59.851Z,87.30
2019-01-12T19:06:29.335Z,87.35
2019-01-12T19:08:58.467Z,86.95
2019-01-12T19:11:27.670Z,86.98
2019-01-12T19:13:56.808Z,86.99
2019-01-12T19:16:25.968Z,87.07
2019-01-12T19:18:55.058Z,86.58
2019-01-12T19:21:24.267Z,87.09
2019-01-12T19:23:53.358Z,86.62
2019-01-12T19:26:22.543Z,86.96
2019-01-12T19:28:51.699Z,86.89
2019-01-12T19:31:20.831Z,86.91
2019-01-12T19:33:50.033Z,86.29
2019-01-12T19:36:19.185Z,86.61
2019-01-12T19:38:48.287Z,86.98
2019-01-12T19:41:17.576Z,86.38
2019-01-12T19:43:46.669Z,86.23
2019-01-12T19:46:15.766Z,86.02
2019-01-12T19:48:44.885Z,86.71
2019-01-12T19:51:14.424Z,86.27
2019-01-12T19:53:43.561Z,86.96
2019-01-12T19:56:12.702Z,87.30
2019-01-12T19:58:41.856Z,87.12
2019-01-12T20:01:11.094Z,87.72
2019-01-12T20:03:40.253Z,88.03
2019-01-12T20:06:16.886Z,88.53
2019-01-12T20:08:40.280Z,88.02
2019-01-12T20:11:09.474Z,88.34
2019-01-12T20:17:06.606Z,88.11
2019-01-12T20:19:35.746Z,88.40
2019-01-12T20:22:04.810Z,87.68
2019-01-12T20:24:33.920Z,87.37
2019-01-12T20:27:03.054Z,87.69
2019-01-12T20:29:32.305Z,87.23
2019-01-12T20:32:14.483Z,87.10
2019-01-12T20:34:57.290Z,87.33
2019-01-12T20:38:06.573Z,86.52
2019-01-12T20:41:09.168Z,87.32
2019-01-12T20:44:10.911Z,86.37
2019-01-12T20:47:12.295Z,87.06
2019-01-12T20:50:34.509Z,86.17
2019-01-12T20:53:53.995Z,85.92
2019-01-12T20:57:19.553Z,86.37
2019-01-12T21:00:01.293Z,86.19
2019-01-12T21:03:20.402Z,87.47
2019-01-12T21:06:13.022Z,87.66
2019-01-12T21:09:28.273Z,88.21
2019-01-12T21:12:24.414Z,88.07
2019-01-12T21:15:04.870Z,88.76
2019-01-12T21:17:34.022Z,89.04
2019-01-12T21:20:03.135Z,88.96
2019-01-12T21:22:33.199Z,88.66
2019-01-12T21:25:03.357Z,88.84
2019-01-12T21:27:33.717Z,88.20
2019-01-12T21:30:08.595Z,88.61
2019-01-12T21:32:38.673Z,88.35
2019-01-12T21:35:10.258Z,88.08
2019-01-12T21:37:40.847Z,88.17
2019-01-12T21:40:11.184Z,87.97
2019-01-12T21:42:41.236Z,87.83
2019-01-12T21:45:12.569Z,88.51
2019-01-12T21:47:43.074Z,88.49
2019-01-12T21:50:17.077Z,87.27
2019-01-12T21:52:46.229Z,87.53
2019-01-12T21:55:15.338Z,87.00
2019-01-12T21:57:45.182Z,87.08
2019-01-12T22:00:16.029Z,87.42
2019-01-12T22:02:47.954Z,88.06
2019-01-12T22:05:20.135Z,87.98
2019-01-12T22:07:52.046Z,87.59
2019-01-12T22:10:21.153Z,88.30
2019-01-12T22:12:50.277Z,88.25
2019-01-12T22:15:19.457Z,87.99
2019-01-12T22:17:51.563Z,87.64
2019-01-12T22:20:20.720Z,88.14
2019-01-12T22:22:50.789Z,87.97
2019-01-12T22:25:21.097Z,88.30
2019-01-12T22:27:50.346Z,87.50
2019-01-12T22:30:19.503Z,87.77
2019-01-12T22:32:49.925Z,87.67
2019-01-12T22:35:19.992Z,87.95
2019-01-12T22:37:49.062Z,87.71
2019-01-12T22:40:19.391Z,87.63
2019-01-12T22:42:52.383Z,87.49
2019-01-12T22:45:21.475Z,86.96
2019-01-12T22:47:50.825Z,87.07
2019-01-12T22:50:20.010Z,87.39
2019-01-12T22:52:51.846Z,87.21
2019-01-12T22:55:21.008Z,87.66
2019-01-12T22:57:51.174Z,87.16
2019-01-12T23:00:45.257Z,87.30
2019-01-12T23:03:15.424Z,86.67
2019-01-12T23:05:44.714Z,86.84
2019-01-12T23:08:13.812Z,87.10
2019-01-12T23:10:42.959Z,87.41
2019-01-12T23:13:12.312Z,87.25
2019-01-12T23:15:41.366Z,87.04
2019-01-12T23:18:10.479Z,86.44
2019-01-12T23:20:39.556Z,87.10
2019-01-12T23:23:08.670Z,86.92
2019-01-12T23:25:37.899Z,86.59
2019-01-12T23:28:07.202Z,86.54
2019-01-12T23:30:36.427Z,86.09
2019-01-12T23:33:05.568Z,86.46
2019-01-12T23:35:34.688Z,86.59
2019-01-12T23:38:03.797Z,86.01
2019-01-12T23:40:32.994Z,86.25
2019-01-12T23:43:02.178Z,86.45
2019-01-12T23:45:31.377Z,86.01
2019-01-12T23:48:00.501Z,86.01
2019-01-12T23:50:29.613Z,86.69
2019-01-12T23:52:58.726Z,86.50
2019-01-12T23:55:27.843Z,87.02
2019-01-12T23:57:56.965Z,86.77
